createdAt,value
2022-09-05T00:00:14.755Z,13.75
2022-09-05T00:03:14.022Z,13.67
2022-09-05T00:06:15.297Z,13.51
2022-09-05T00:09:27.816Z,13.54
2022-09-05T00:12:17.899Z,13.32
2022-09-05T00:15:30.946Z,13.42
2022-09-05T00:21:21.408Z,13.35
2022-09-05T00:24:34.150Z,13.30
2022-09-05T00:26:30.018Z,13.29
2022-09-05T00:29:26.833Z,13.31
2022-09-05T00:32:33.576Z,13.29
2022-09-05T00:35:28.181Z,13.27
2022-09-05T00:38:32.047Z,13.00
2022-09-05T00:41:23.154Z,13.04
2022-09-05T00:44:10.329Z,13.03
2022-09-05T00:46:55.787Z,13.42
2022-09-05T00:49:48.786Z,12.54
2022-09-05T00:52:42.262Z,13.38
2022-09-05T00:55:58.823Z,13.62
2022-09-05T00:58:44.445Z,13.66
2022-09-05T01:01:33.730Z,13.65
2022-09-05T01:04:25.263Z,13.65
2022-09-05T01:07:48.374Z,13.61
2022-09-05T01:10:43.833Z,13.57
2022-09-05T01:13:56.608Z,13.47
2022-09-05T01:16:41.831Z,13.37
2022-09-05T01:20:19.477Z,13.31
2022-09-05T01:23:24.793Z,13.20
2022-09-05T01:26:37.485Z,13.05
2022-09-05T01:29:43.834Z,11.96
2022-09-05T01:32:39.215Z,11.70
2022-09-05T01:35:28.066Z,12.77
2022-09-05T01:38:46.936Z,12.80
2022-09-05T01:41:56.592Z,12.90
2022-09-05T01:44:55.245Z,12.96
2022-09-05T01:47:46.182Z,12.07
2022-09-05T01:50:49.751Z,13.05
2022-09-05T01:53:51.190Z,11.86
2022-09-05T01:57:11.412Z,12.19
2022-09-05T01:59:59.919Z,13.07
2022-09-05T02:03:27.395Z,11.92
2022-09-05T02:06:37.652Z,13.15
2022-09-05T02:09:49.519Z,12.19
2022-09-05T02:13:12.285Z,13.17
2022-09-05T02:16:19.272Z,12.84
2022-09-05T02:19:09.130Z,12.72
2022-09-05T02:22:07.329Z,13.20
2022-09-05T02:26:00.233Z,12.96
2022-09-05T02:28:15.647Z,12.10
2022-09-05T02:31:19.555Z,12.72
2022-09-05T02:34:12.317Z,13.23
2022-09-05T02:37:05.289Z,12.07
2022-09-05T02:43:30.516Z,12.65
2022-09-05T02:45:09.902Z,13.17
2022-09-05T02:46:55.735Z,12.01
2022-09-05T02:52:21.204Z,12.97
2022-09-05T02:57:27.086Z,12.27
2022-09-05T02:57:38.797Z,12.86
2022-09-05T03:00:05.414Z,11.55
2022-09-05T03:03:09.705Z,12.71
2022-09-05T03:06:42.849Z,12.66
2022-09-05T03:09:44.814Z,12.60
2022-09-05T03:12:52.326Z,12.52
2022-09-05T03:15:55.419Z,12.49
2022-09-05T03:19:05.412Z,12.46
2022-09-05T03:22:14.025Z,12.45
2022-09-05T03:25:32.607Z,11.51
2022-09-05T03:28:43.035Z,12.46
2022-09-05T03:31:56.943Z,12.41
2022-09-05T03:35:08.888Z,12.24
2022-09-05T03:38:13.158Z,12.30
2022-09-05T03:41:12.445Z,11.77
2022-09-05T03:44:10.197Z,12.22
2022-09-05T03:47:11.577Z,12.20
2022-09-05T03:54:47.335Z,12.04
2022-09-05T03:57:18.606Z,12.14
2022-09-05T03:57:41.901Z,11.21
2022-09-05T04:00:33.654Z,11.50
2022-09-05T04:08:13.520Z,12.09
2022-09-05T04:08:27.685Z,12.06
2022-09-05T04:10:23.104Z,12.09
2022-09-05T04:13:20.975Z,11.96
2022-09-05T04:16:17.250Z,12.16
2022-09-05T04:19:21.766Z,11.92
2022-09-05T04:22:29.879Z,12.12
2022-09-05T04:25:27.836Z,12.08
2022-09-05T04:28:32.437Z,12.03
2022-09-05T04:32:06.524Z,12.07
2022-09-05T04:35:15.758Z,12.14
2022-09-05T04:38:17.750Z,12.19
2022-09-05T04:41:16.535Z,11.82
2022-09-05T04:44:11.138Z,12.16
2022-09-05T04:47:29.748Z,12.54
2022-09-05T04:50:23.384Z,12.66
2022-09-05T04:53:55.887Z,12.85
2022-09-05T04:56:49.560Z,11.77
2022-09-05T05:03:29.958Z,11.88
2022-09-05T05:06:10.660Z,12.92
2022-09-05T05:06:45.067Z,13.24
2022-09-05T05:10:35.253Z,12.40
2022-09-05T05:18:01.199Z,13.83
2022-09-05T05:18:09.764Z,14.19
2022-09-05T05:20:40.626Z,14.21
2022-09-05T05:23:09.084Z,14.82
2022-09-05T05:26:00.110Z,15.13
2022-09-05T05:29:00.876Z,15.47
2022-09-05T05:32:00.599Z,15.72
2022-09-05T05:34:55.381Z,16.04
2022-09-05T05:37:43.652Z,15.24
2022-09-05T05:40:42.356Z,16.58
2022-09-05T05:43:46.452Z,16.46
2022-09-05T05:46:37.669Z,17.08
2022-09-05T05:49:32.790Z,17.27
2022-09-05T05:52:40.936Z,17.48
2022-09-05T05:56:05.808Z,17.68
2022-09-05T05:59:29.026Z,17.86
2022-09-05T06:02:33.562Z,18.06
2022-09-05T06:05:40.632Z,18.19
2022-09-05T06:12:34.416Z,18.18
2022-09-05T06:14:58.709Z,18.25
2022-09-05T06:15:40.073Z,18.29
2022-09-05T06:18:42.635Z,18.33
2022-09-05T06:22:10.060Z,18.35
2022-09-05T06:25:17.113Z,18.32
2022-09-05T06:28:18.671Z,18.38
2022-09-05T06:31:39.344Z,18.45
2022-09-05T06:35:07.088Z,18.65
2022-09-05T06:37:58.591Z,18.68
2022-09-05T06:41:02.964Z,18.71
2022-09-05T06:48:14.563Z,18.07
2022-09-05T06:51:25.219Z,18.67
2022-09-05T06:54:38.569Z,18.76
2022-09-05T06:58:06.302Z,18.85
2022-09-05T07:00:58.071Z,18.72
2022-09-05T07:05:23.329Z,19.01
2022-09-05T07:07:46.153Z,18.82
2022-09-05T07:10:38.953Z,19.23
2022-09-05T07:13:42.606Z,19.20
2022-09-05T07:16:41.955Z,18.89
2022-09-05T07:19:57.282Z,19.30
2022-09-05T07:22:57.384Z,18.83
2022-09-05T07:26:03.894Z,19.62
2022-09-05T07:28:57.485Z,19.75
2022-09-05T07:31:51.712Z,18.70
2022-09-05T07:34:37.819Z,19.84
2022-09-05T07:37:28.615Z,18.86
2022-09-05T07:40:25.726Z,19.13
2022-09-05T07:43:39.457Z,20.05
2022-09-05T07:46:32.489Z,20.02
2022-09-05T07:49:23.860Z,19.45
2022-09-05T07:56:51.197Z,20.14
2022-09-05T07:57:01.960Z,19.11
2022-09-05T07:59:02.906Z,20.22
2022-09-05T08:01:58.640Z,20.21
2022-09-05T08:04:45.829Z,20.36
2022-09-05T08:07:49.439Z,20.38
2022-09-05T08:11:25.421Z,20.34
2022-09-05T08:14:43.753Z,20.17
2022-09-05T08:17:35.535Z,19.53
2022-09-05T08:20:42.596Z,19.35
2022-09-05T08:24:13.197Z,20.42
2022-09-05T08:27:44.640Z,20.25
2022-09-05T08:30:39.327Z,20.53
2022-09-05T08:33:32.533Z,20.36
2022-09-05T08:36:46.599Z,19.61
2022-09-05T08:39:34.178Z,20.68
2022-09-05T08:43:55.984Z,20.73
2022-09-05T08:46:50.014Z,20.82
2022-09-05T08:49:49.979Z,20.15
2022-09-05T08:52:51.606Z,20.37
2022-09-05T08:56:01.920Z,20.33
2022-09-05T08:59:28.291Z,21.07
2022-09-05T09:02:48.329Z,21.03
2022-09-05T09:06:15.805Z,20.07
2022-09-05T09:09:16.671Z,20.49
2022-09-05T09:12:32.622Z,20.71
2022-09-05T09:15:30.146Z,21.01
2022-09-05T09:18:18.474Z,20.75
2022-09-05T09:21:22.379Z,20.76
2022-09-05T09:24:25.245Z,20.66
2022-09-05T09:27:29.756Z,19.94
2022-09-05T09:30:26.353Z,20.71
2022-09-05T09:33:24.090Z,19.27
2022-09-05T09:36:40.483Z,21.09
2022-09-05T09:39:45.157Z,21.15
2022-09-05T09:43:21.747Z,21.13
2022-09-05T09:46:24.671Z,20.26
2022-09-05T09:49:28.631Z,21.22
2022-09-05T09:52:40.102Z,21.27
2022-09-05T09:55:59.872Z,21.26
2022-09-05T09:59:04.680Z,21.31
2022-09-05T10:03:27.006Z,21.38
2022-09-05T10:05:52.398Z,21.41
2022-09-05T10:10:44.034Z,21.36
2022-09-05T10:13:08.260Z,21.25
2022-09-05T10:16:07.486Z,21.13
2022-09-05T10:19:11.131Z,21.04
2022-09-05T10:22:36.545Z,20.96
2022-09-05T10:25:48.127Z,20.94
2022-09-05T10:28:43.104Z,20.99
2022-09-05T10:35:11.195Z,20.99
2022-09-05T10:35:18.139Z,20.98
2022-09-05T10:38:15.249Z,20.92
2022-09-05T10:41:20.790Z,20.90
2022-09-05T10:44:11.205Z,20.92
2022-09-05T10:46:59.711Z,20.05
2022-09-05T10:49:50.671Z,20.09
2022-09-05T10:52:59.388Z,21.22
2022-09-05T10:56:09.153Z,21.09
2022-09-05T11:01:31.064Z,21.31
2022-09-05T11:02:34.786Z,21.49
2022-09-05T11:05:30.832Z,20.65
2022-09-05T11:08:47.610Z,21.66
2022-09-05T11:11:46.631Z,20.73
2022-09-05T11:14:51.478Z,21.40
2022-09-05T11:17:54.291Z,21.38
2022-09-05T11:20:58.489Z,21.05
2022-09-05T11:23:57.448Z,21.07
2022-09-05T11:27:24.216Z,19.83
2022-09-05T11:30:30.424Z,20.81
2022-09-05T11:40:00.000Z,20.78
2022-09-05T11:40:00.371Z,20.78
2022-09-05T11:40:38.221Z,20.39
2022-09-05T11:43:42.854Z,20.25
2022-09-05T11:46:40.952Z,20.55
2022-09-05T11:49:44.170Z,20.77
2022-09-05T11:53:06.716Z,20.96
2022-09-05T11:56:15.015Z,21.14
2022-09-05T11:59:33.488Z,21.23
2022-09-05T12:02:53.575Z,20.85
2022-09-05T12:05:58.806Z,21.18
2022-09-05T12:08:57.104Z,20.07
2022-09-05T12:12:26.685Z,20.72
2022-09-05T12:15:34.611Z,20.76
2022-09-05T12:18:24.201Z,20.78
2022-09-05T12:21:31.559Z,20.83
2022-09-05T12:25:23.782Z,20.90
2022-09-05T12:27:47.504Z,20.93
2022-09-05T12:31:09.942Z,20.47
2022-09-05T12:36:05.371Z,20.96
2022-09-05T12:40:18.406Z,20.04
2022-09-05T12:41:36.065Z,20.51
2022-09-05T12:44:07.937Z,20.14
2022-09-05T12:46:45.760Z,21.20
2022-09-05T12:50:14.951Z,21.17
2022-09-05T12:53:07.670Z,20.91
2022-09-05T12:56:33.638Z,20.61
2022-09-05T13:03:01.615Z,21.04
2022-09-05T13:03:14.057Z,21.05
2022-09-05T13:05:58.824Z,21.11
2022-09-05T13:08:59.738Z,21.11
2022-09-05T13:14:53.866Z,20.31
2022-09-05T13:15:27.160Z,21.13
2022-09-05T13:18:17.086Z,20.83
2022-09-05T13:21:08.852Z,20.93
2022-09-05T13:24:12.463Z,21.13
2022-09-05T13:27:20.450Z,21.08
2022-09-05T13:33:01.936Z,20.86
2022-09-05T13:38:02.272Z,20.91
2022-09-05T13:38:20.929Z,19.94
2022-09-05T13:39:59.522Z,19.89
2022-09-05T13:43:11.374Z,20.35
2022-09-05T13:46:25.983Z,21.20
2022-09-05T13:49:25.162Z,20.82
2022-09-05T13:52:37.814Z,21.20
2022-09-05T13:55:46.195Z,21.13
2022-09-05T13:58:56.827Z,20.87
2022-09-05T14:01:57.064Z,20.17
2022-09-05T14:05:06.509Z,20.94
2022-09-05T14:08:24.459Z,20.97
2022-09-05T14:11:32.667Z,20.97
2022-09-05T14:18:21.498Z,20.95
2022-09-05T14:21:15.871Z,20.40
2022-09-05T14:24:14.668Z,19.92
2022-09-05T14:27:00.487Z,20.94
2022-09-05T14:29:52.237Z,20.89
2022-09-05T14:37:35.381Z,20.84
2022-09-05T14:37:50.673Z,20.78
2022-09-05T14:39:42.410Z,20.59
2022-09-05T14:42:50.737Z,20.81
2022-09-05T14:46:04.772Z,20.82
2022-09-05T14:49:18.270Z,20.76
2022-09-05T14:52:28.926Z,19.83
2022-09-05T15:02:41.493Z,20.31
2022-09-05T15:02:48.567Z,20.70
2022-09-05T15:07:25.783Z,20.66
2022-09-05T15:12:14.821Z,20.55
2022-09-05T15:13:30.331Z,20.50
2022-09-05T15:16:17.761Z,20.22
2022-09-05T15:19:03.487Z,19.50
2022-09-05T15:21:49.010Z,20.29
2022-09-05T15:24:34.415Z,20.38
2022-09-05T15:27:28.749Z,19.46
2022-09-05T15:30:17.756Z,20.55
2022-09-05T15:33:25.849Z,20.52
2022-09-05T15:36:17.409Z,20.24
2022-09-05T15:39:35.860Z,20.43
2022-09-05T15:42:23.890Z,20.43
2022-09-05T15:45:17.943Z,19.45
2022-09-05T15:48:25.291Z,20.42
2022-09-05T15:51:19.366Z,20.36
2022-09-05T15:54:05.318Z,19.45
2022-09-05T15:56:59.540Z,18.86
2022-09-05T15:59:48.989Z,20.14
2022-09-05T16:02:49.930Z,19.12
2022-09-05T16:10:35.229Z,19.93
2022-09-05T16:10:39.696Z,20.05
2022-09-05T16:12:51.608Z,19.97
2022-09-05T16:22:11.272Z,18.98
2022-09-05T16:23:27.194Z,18.96
2022-09-05T16:23:30.906Z,19.82
2022-09-05T16:25:23.846Z,19.57
2022-09-05T16:28:34.714Z,19.52
2022-09-05T16:31:28.901Z,19.52
2022-09-05T16:34:45.377Z,19.43
2022-09-05T16:37:49.655Z,19.32
2022-09-05T16:40:41.454Z,19.12
2022-09-05T16:43:32.689Z,19.16
2022-09-05T16:46:27.666Z,18.10
2022-09-05T16:49:41.879Z,19.09
2022-09-05T16:52:37.835Z,19.05
2022-09-05T16:55:37.828Z,19.00
2022-09-05T16:58:33.318Z,18.58
2022-09-05T17:01:40.294Z,18.91
2022-09-05T17:04:28.689Z,18.40
2022-09-05T17:07:33.094Z,18.28
2022-09-05T17:10:21.733Z,18.67
2022-09-05T17:13:16.779Z,18.40
2022-09-05T17:16:03.985Z,17.37
2022-09-05T17:18:52.755Z,18.30
2022-09-05T17:22:47.528Z,18.41
2022-09-05T17:29:30.254Z,18.30
2022-09-05T17:29:32.180Z,17.94
2022-09-05T17:34:15.218Z,18.13
2022-09-05T17:37:12.689Z,18.06
2022-09-05T17:40:42.777Z,17.21
2022-09-05T17:43:38.631Z,17.57
2022-09-05T17:46:29.079Z,17.79
2022-09-05T17:49:40.406Z,17.71
2022-09-05T17:52:26.063Z,17.64
2022-09-05T17:55:13.657Z,17.17
2022-09-05T17:58:19.561Z,17.28
2022-09-05T18:01:18.131Z,15.87
2022-09-05T18:04:17.358Z,16.56
2022-09-05T18:07:27.158Z,16.50
2022-09-05T18:10:27.833Z,16.16
2022-09-05T18:13:32.353Z,16.11
2022-09-05T18:16:39.956Z,15.86
2022-09-05T18:19:46.301Z,15.76
2022-09-05T18:22:47.515Z,15.64
2022-09-05T18:26:16.055Z,15.55
2022-09-05T18:29:06.183Z,15.58
2022-09-05T18:31:52.079Z,15.58
2022-09-05T18:34:37.789Z,15.58
2022-09-05T18:37:49.118Z,15.56
2022-09-05T18:41:06.144Z,15.40
2022-09-05T18:44:12.924Z,15.44
2022-09-05T18:47:04.901Z,15.40
2022-09-05T18:50:25.669Z,15.41
2022-09-05T18:53:12.986Z,15.37
2022-09-05T18:56:42.450Z,15.51
2022-09-05T18:59:53.727Z,15.57
2022-09-05T19:02:59.083Z,14.90
2022-09-05T19:05:55.134Z,14.53
2022-09-05T19:08:48.933Z,15.40
2022-09-05T19:11:53.495Z,15.54
2022-09-05T19:15:13.281Z,15.50
2022-09-05T19:18:26.251Z,14.34
2022-09-05T19:21:19.034Z,15.38
2022-09-05T19:24:09.889Z,14.95
2022-09-05T19:27:57.407Z,14.31
2022-09-05T19:36:46.814Z,14.42
2022-09-05T19:36:50.138Z,13.95
2022-09-05T19:37:08.358Z,14.53
2022-09-05T19:42:39.999Z,15.16
2022-09-05T19:47:38.380Z,13.96
2022-09-05T19:47:39.632Z,14.89
2022-09-05T19:49:23.044Z,14.51
2022-09-05T19:52:18.930Z,14.66
2022-09-05T19:55:28.196Z,14.58
2022-09-05T19:58:21.144Z,14.44
2022-09-05T20:01:09.663Z,14.41
2022-09-05T20:03:56.001Z,13.24
2022-09-05T20:06:42.912Z,14.32
2022-09-05T20:09:28.664Z,14.17
2022-09-05T20:12:24.518Z,14.10
2022-09-05T20:15:35.915Z,13.93
2022-09-05T20:18:34.202Z,13.71
2022-09-05T20:21:32.851Z,13.57
2022-09-05T20:24:20.025Z,12.30
2022-09-05T20:27:06.074Z,12.09
2022-09-05T20:29:56.869Z,13.26
2022-09-05T20:32:52.317Z,12.91
2022-09-05T20:38:26.370Z,12.66
2022-09-05T20:43:22.630Z,11.31
2022-09-05T20:43:30.344Z,11.97
2022-09-05T20:45:07.155Z,12.81
2022-09-05T20:52:50.419Z,11.71
2022-09-05T20:54:22.764Z,12.40
2022-09-05T20:54:32.075Z,12.01
2022-09-05T20:57:18.343Z,12.89
2022-09-05T21:00:16.936Z,12.78
2022-09-05T21:03:02.567Z,12.53
2022-09-05T21:05:50.633Z,11.10
2022-09-05T21:08:36.557Z,10.99
2022-09-05T21:11:30.994Z,12.19
2022-09-05T21:14:21.859Z,12.28
2022-09-05T21:17:15.439Z,11.05
2022-09-05T21:20:08.438Z,12.40
2022-09-05T21:22:53.757Z,11.30
2022-09-05T21:25:51.677Z,12.52
2022-09-05T21:28:39.574Z,12.58
2022-09-05T21:31:27.071Z,12.40
2022-09-05T21:34:25.411Z,12.57
2022-09-05T21:37:13.225Z,11.63
2022-09-05T21:40:01.167Z,12.67
2022-09-05T21:46:45.569Z,12.63
2022-09-05T21:47:49.927Z,10.90
2022-09-05T21:49:00.744Z,12.83
2022-09-05T21:51:51.010Z,12.49
2022-09-05T21:59:16.978Z,11.60
2022-09-05T21:59:28.368Z,12.58
2022-09-05T22:00:53.331Z,12.55
2022-09-05T22:03:39.206Z,11.85
2022-09-05T22:06:27.734Z,12.66
2022-09-05T22:09:14.420Z,12.66
2022-09-05T22:12:00.375Z,12.08
2022-09-05T22:15:26.840Z,11.78
2022-09-05T22:18:17.021Z,12.41
2022-09-05T22:21:34.110Z,12.40
2022-09-05T22:24:21.578Z,12.53
2022-09-05T22:27:12.702Z,12.47
2022-09-05T22:29:59.071Z,12.39
2022-09-05T22:32:44.386Z,11.45
2022-09-05T22:35:29.848Z,12.31
2022-09-05T22:38:19.786Z,12.30
2022-09-05T22:41:06.203Z,12.19
2022-09-05T22:43:51.617Z,10.94
2022-09-05T22:46:37.143Z,12.08
2022-09-05T22:49:22.323Z,11.94
2022-09-05T22:52:09.640Z,10.89
2022-09-05T22:54:55.353Z,10.90
2022-09-05T22:57:41.667Z,11.33
2022-09-05T23:00:27.297Z,11.96
2022-09-05T23:03:12.522Z,11.69
2022-09-05T23:06:06.075Z,11.64
2022-09-05T23:08:51.685Z,11.80
2022-09-05T23:11:37.125Z,10.58
2022-09-05T23:14:22.445Z,10.59
2022-09-05T23:17:07.790Z,11.91
2022-09-05T23:19:53.714Z,11.85
2022-09-05T23:22:39.951Z,10.69
2022-09-05T23:25:25.779Z,11.67
2022-09-05T23:28:11.155Z,12.05
2022-09-05T23:31:01.113Z,12.09
2022-09-05T23:33:46.598Z,10.84
2022-09-05T23:36:32.105Z,11.02
2022-09-05T23:39:17.550Z,12.03
2022-09-05T23:42:03.297Z,11.94
2022-09-05T23:44:48.883Z,11.94
2022-09-05T23:47:37.803Z,11.25
2022-09-05T23:50:23.997Z,12.24
2022-09-05T23:53:09.376Z,11.66
2022-09-05T23:55:59.579Z,11.16
2022-09-05T23:58:45.680Z,11.78
